createdAt,value
2023-02-05T00:01:17.337Z,22.20
2023-02-05T00:03:45.216Z,22.18
2023-02-05T00:06:12.817Z,22.26
2023-02-05T00:08:40.321Z,22.28
2023-02-05T00:11:07.834Z,22.24
2023-02-05T00:13:35.551Z,22.25
2023-02-05T00:16:09.496Z,22.27
2023-02-05T00:18:37.244Z,22.26
2023-02-05T00:21:05.369Z,22.21
2023-02-05T00:23:34.186Z,22.24
2023-02-05T00:26:02.136Z,22.25
2023-02-05T00:28:31.907Z,22.23
2023-02-05T00:30:59.851Z,22.26
2023-02-05T00:33:28.937Z,22.27
2023-02-05T00:35:56.492Z,22.26
2023-02-05T00:38:24.119Z,22.23
2023-02-05T00:40:51.621Z,22.20
2023-02-05T00:43:19.204Z,22.22
2023-02-05T00:45:46.895Z,22.22
2023-02-05T00:48:14.487Z,22.19
2023-02-05T00:50:43.451Z,22.20
2023-02-05T00:53:11.066Z,22.17
2023-02-05T00:55:38.524Z,22.25
2023-02-05T00:58:06.092Z,22.24
2023-02-05T01:00:33.968Z,22.23
2023-02-05T01:03:01.935Z,22.17
2023-02-05T01:05:29.542Z,22.24
2023-02-05T01:07:58.503Z,22.24
2023-02-05T01:10:26.099Z,22.17
2023-02-05T01:12:54.199Z,22.22
2023-02-05T01:15:21.796Z,22.23
2023-02-05T01:17:49.320Z,22.23
2023-02-05T01:20:16.915Z,22.19
2023-02-05T01:22:44.468Z,22.21
2023-02-05T01:25:13.936Z,22.21
2023-02-05T01:27:41.453Z,22.20
2023-02-05T01:30:10.313Z,22.20
2023-02-05T01:32:37.828Z,22.25
2023-02-05T01:35:06.432Z,22.19
2023-02-05T01:37:34.014Z,22.22
2023-02-05T01:40:01.474Z,22.08
2023-02-05T01:42:32.062Z,22.20
2023-02-05T01:45:36.609Z,22.13
2023-02-05T01:48:06.188Z,22.21
2023-02-05T01:50:38.792Z,22.18
2023-02-05T01:53:10.180Z,22.21
2023-02-05T01:55:44.602Z,22.16
2023-02-05T01:58:14.228Z,22.19
2023-02-05T02:00:42.838Z,22.15
2023-02-05T02:03:11.759Z,22.18
2023-02-05T02:05:39.257Z,22.18
2023-02-05T02:08:06.828Z,22.20
2023-02-05T02:10:35.114Z,22.17
2023-02-05T02:13:03.007Z,22.15
2023-02-05T02:15:33.294Z,22.17
2023-02-05T02:18:03.535Z,22.17
2023-02-05T02:20:39.465Z,22.10
2023-02-05T02:23:19.341Z,22.11
2023-02-05T02:26:16.801Z,22.11
2023-02-05T02:28:49.962Z,22.12
2023-02-05T02:31:25.633Z,22.11
2023-02-05T02:33:56.563Z,22.16
2023-02-05T02:36:31.473Z,22.12
2023-02-05T02:39:07.099Z,22.10
2023-02-05T02:41:42.164Z,22.09
2023-02-05T02:44:16.674Z,22.10
2023-02-05T02:46:48.996Z,22.07
2023-02-05T02:49:22.939Z,22.02
2023-02-05T02:51:52.532Z,21.21
2023-02-05T02:54:21.994Z,21.48
2023-02-05T02:56:52.346Z,21.73
2023-02-05T02:59:24.617Z,21.82
2023-02-05T03:01:56.029Z,21.92
2023-02-05T03:04:27.630Z,21.97
2023-02-05T03:06:59.992Z,21.92
2023-02-05T03:09:35.548Z,21.92
2023-02-05T03:12:04.500Z,21.87
2023-02-05T03:14:33.897Z,21.94
2023-02-05T03:17:02.455Z,21.97
2023-02-05T03:19:31.459Z,21.86
2023-02-05T03:22:03.540Z,20.71
2023-02-05T03:24:32.291Z,21.44
2023-02-05T03:27:00.277Z,21.44
2023-02-05T03:29:30.884Z,21.76
2023-02-05T03:32:16.575Z,21.76
2023-02-05T03:34:55.127Z,21.80
2023-02-05T03:37:36.532Z,21.85
2023-02-05T03:40:14.507Z,21.89
2023-02-05T03:42:48.962Z,21.89
2023-02-05T03:45:32.657Z,21.93
2023-02-05T03:48:22.834Z,21.99
2023-02-05T03:50:56.003Z,22.05
2023-02-05T03:53:32.411Z,21.99
2023-02-05T03:56:06.559Z,22.03
2023-02-05T03:58:39.929Z,21.91
2023-02-05T04:01:10.684Z,21.97
2023-02-05T04:03:41.094Z,21.87
2023-02-05T04:06:08.904Z,21.88
2023-02-05T04:08:36.908Z,21.99
2023-02-05T04:11:05.370Z,21.95
2023-02-05T04:13:33.472Z,21.95
2023-02-05T04:16:02.836Z,22.00
2023-02-05T04:18:30.493Z,21.94
2023-02-05T04:20:59.875Z,21.96
2023-02-05T04:23:29.412Z,21.98
2023-02-05T04:25:57.065Z,22.02
2023-02-05T04:28:32.906Z,21.96
2023-02-05T04:31:06.611Z,22.01
2023-02-05T04:33:34.480Z,21.97
2023-02-05T04:36:04.144Z,22.00
2023-02-05T04:38:31.772Z,21.95
2023-02-05T04:40:59.400Z,22.03
2023-02-05T04:43:26.987Z,21.96
2023-02-05T04:45:54.525Z,21.94
2023-02-05T04:48:22.031Z,22.01
2023-02-05T04:50:49.516Z,22.01
2023-02-05T04:53:18.590Z,22.01
2023-02-05T04:55:46.123Z,21.95
2023-02-05T04:58:14.570Z,21.94
2023-02-05T05:00:42.609Z,22.00
2023-02-05T05:03:10.697Z,21.97
2023-02-05T05:05:38.244Z,21.97
2023-02-05T05:08:05.873Z,21.93
2023-02-05T05:10:34.779Z,22.01
2023-02-05T05:13:02.424Z,22.00
2023-02-05T05:15:30.152Z,21.97
2023-02-05T05:17:57.693Z,22.01
2023-02-05T05:20:25.242Z,22.01
2023-02-05T05:22:53.257Z,22.00
2023-02-05T05:25:20.788Z,21.99
2023-02-05T05:27:49.957Z,21.99
2023-02-05T05:30:17.575Z,22.01
2023-02-05T05:32:45.102Z,21.94
2023-02-05T05:35:12.559Z,22.00
2023-02-05T05:37:40.101Z,22.07
2023-02-05T05:40:08.582Z,22.04
2023-02-05T05:42:37.755Z,22.12
2023-02-05T05:45:07.439Z,22.13
2023-02-05T05:47:35.063Z,22.16
2023-02-05T05:50:02.715Z,22.12
2023-02-05T05:52:32.382Z,22.12
2023-02-05T05:55:00.299Z,22.15
2023-02-05T05:57:28.019Z,22.16
2023-02-05T05:59:55.797Z,22.11
2023-02-05T06:02:24.893Z,22.14
2023-02-05T06:04:52.729Z,22.17
2023-02-05T06:07:20.457Z,22.20
2023-02-05T06:09:48.172Z,22.07
2023-02-05T06:12:15.839Z,22.18
2023-02-05T06:14:43.307Z,22.13
2023-02-05T06:17:10.812Z,22.20
2023-02-05T06:19:39.884Z,22.24
2023-02-05T06:22:07.358Z,22.21
2023-02-05T06:24:34.872Z,22.21
2023-02-05T06:27:02.514Z,22.18
2023-02-05T06:29:29.981Z,22.14
2023-02-05T06:31:58.148Z,22.23
2023-02-05T06:34:26.256Z,22.24
2023-02-05T06:36:55.289Z,22.22
2023-02-05T06:39:24.910Z,22.23
2023-02-05T06:41:52.862Z,22.24
2023-02-05T06:44:20.789Z,22.23
2023-02-05T06:46:48.579Z,22.24
2023-02-05T06:49:16.314Z,22.19
2023-02-05T06:51:43.930Z,22.23
2023-02-05T06:54:13.010Z,22.22
2023-02-05T06:56:40.511Z,22.19
2023-02-05T06:59:08.130Z,22.17
2023-02-05T07:01:35.686Z,22.21
2023-02-05T07:04:03.414Z,22.18
2023-02-05T07:06:30.933Z,22.26
2023-02-05T07:08:58.608Z,22.19
2023-02-05T07:11:27.878Z,22.22
2023-02-05T07:13:55.634Z,22.27
2023-02-05T07:16:23.149Z,22.28
2023-02-05T07:18:50.828Z,22.28
2023-02-05T07:21:18.360Z,22.30
2023-02-05T07:23:46.030Z,22.26
2023-02-05T07:26:15.272Z,22.27
2023-02-05T07:28:45.320Z,22.29
2023-02-05T07:31:16.037Z,22.30
2023-02-05T07:33:44.477Z,22.26
2023-02-05T07:36:14.445Z,22.29
2023-02-05T07:38:42.708Z,22.24
2023-02-05T07:41:11.736Z,22.24
2023-02-05T07:43:39.568Z,22.26
2023-02-05T07:46:11.145Z,22.29
2023-02-05T07:48:39.631Z,22.25
2023-02-05T07:51:07.934Z,22.31
2023-02-05T07:53:35.508Z,22.34
2023-02-05T07:56:03.975Z,22.28
2023-02-05T07:58:31.486Z,22.30
2023-02-05T08:01:01.371Z,22.34
2023-02-05T08:03:30.794Z,22.33
2023-02-05T08:05:58.643Z,22.35
2023-02-05T08:08:26.753Z,22.27
2023-02-05T08:10:59.112Z,22.35
2023-02-05T08:13:26.899Z,22.33
2023-02-05T08:15:54.671Z,22.32
2023-02-05T08:18:22.636Z,22.33
2023-02-05T08:20:54.828Z,22.36
2023-02-05T08:23:22.632Z,22.35
2023-02-05T08:25:54.439Z,22.36
2023-02-05T08:28:23.340Z,22.35
2023-02-05T08:30:51.203Z,22.35
2023-02-05T08:33:19.511Z,22.34
2023-02-05T08:35:46.974Z,22.33
2023-02-05T08:38:16.049Z,22.26
2023-02-05T08:40:44.237Z,22.35
2023-02-05T08:43:11.727Z,22.23
2023-02-05T08:45:39.404Z,22.33
2023-02-05T08:48:06.897Z,22.29
2023-02-05T08:50:34.786Z,22.33
2023-02-05T08:53:02.906Z,22.31
2023-02-05T08:55:33.002Z,22.36
2023-02-05T08:58:01.453Z,22.36
2023-02-05T09:00:29.164Z,22.35
2023-02-05T09:02:56.808Z,22.33
2023-02-05T09:05:24.314Z,22.34
2023-02-05T09:07:52.547Z,22.36
2023-02-05T09:10:20.219Z,22.37
2023-02-05T09:12:49.332Z,22.38
2023-02-05T09:15:16.881Z,22.29
2023-02-05T09:17:44.424Z,22.29
2023-02-05T09:20:12.779Z,22.33
2023-02-05T09:22:40.847Z,22.39
2023-02-05T09:25:08.871Z,22.40
2023-02-05T09:27:36.501Z,22.37
2023-02-05T09:30:06.183Z,22.36
2023-02-05T09:32:33.363Z,22.38
2023-02-05T09:35:01.015Z,22.41
2023-02-05T09:37:28.651Z,22.39
2023-02-05T09:40:20.500Z,22.39
2023-02-05T09:42:52.182Z,22.42
2023-02-05T09:45:37.892Z,22.43
2023-02-05T09:48:23.774Z,22.40
2023-02-05T09:50:52.461Z,22.36
2023-02-05T09:53:23.399Z,22.42
2023-02-05T09:55:51.476Z,22.48
2023-02-05T09:58:25.606Z,22.47
2023-02-05T10:01:01.351Z,22.45
2023-02-05T10:03:36.388Z,22.46
2023-02-05T10:06:27.927Z,22.46
2023-02-05T10:09:05.546Z,22.47
2023-02-05T10:11:42.035Z,22.49
2023-02-05T10:14:19.536Z,22.47
2023-02-05T10:17:11.603Z,22.51
2023-02-05T10:20:03.544Z,22.53
2023-02-05T10:22:42.917Z,22.47
2023-02-05T10:25:43.105Z,22.52
2023-02-05T10:28:27.470Z,22.47
2023-02-05T10:31:03.910Z,22.50
2023-02-05T10:33:46.007Z,22.49
2023-02-05T10:36:15.086Z,22.53
2023-02-05T10:38:44.080Z,22.52
2023-02-05T10:41:20.800Z,22.48
2023-02-05T10:43:51.059Z,22.52
2023-02-05T10:46:19.419Z,22.54
2023-02-05T10:48:53.261Z,22.54
2023-02-05T10:51:28.116Z,22.53
2023-02-05T10:53:57.537Z,22.54
2023-02-05T10:56:26.557Z,22.49
2023-02-05T10:58:55.834Z,22.51
2023-02-05T11:01:25.333Z,22.55
2023-02-05T11:03:59.053Z,22.54
2023-02-05T11:06:32.103Z,22.54
2023-02-05T11:09:00.214Z,22.58
2023-02-05T11:11:29.115Z,22.55
2023-02-05T11:14:00.340Z,22.56
2023-02-05T11:16:38.733Z,22.57
2023-02-05T11:19:19.612Z,22.59
2023-02-05T11:21:51.704Z,22.58
2023-02-05T11:24:29.796Z,22.56
2023-02-05T11:27:35.469Z,22.58
2023-02-05T11:30:47.657Z,22.54
2023-02-05T11:33:23.288Z,22.61
2023-02-05T11:35:55.844Z,22.58
2023-02-05T11:38:32.044Z,22.62
2023-02-05T11:41:02.714Z,22.59
2023-02-05T11:43:33.070Z,22.58
2023-02-05T11:46:04.305Z,22.59
2023-02-05T11:48:37.711Z,22.62
2023-02-05T11:51:09.587Z,22.59
2023-02-05T11:53:38.832Z,22.61
2023-02-05T11:56:11.915Z,22.65
2023-02-05T11:58:39.513Z,22.60
2023-02-05T12:01:22.049Z,22.62
2023-02-05T12:03:59.587Z,22.64
2023-02-05T12:06:35.774Z,22.62
2023-02-05T12:09:04.465Z,22.63
2023-02-05T12:11:48.221Z,22.63
2023-02-05T12:14:23.074Z,22.63
2023-02-05T12:17:00.709Z,22.65
2023-02-05T12:19:34.133Z,22.63
2023-02-05T12:22:14.175Z,22.62
2023-02-05T12:24:59.024Z,22.65
2023-02-05T12:27:38.413Z,22.67
2023-02-05T12:30:30.846Z,22.67
2023-02-05T12:33:23.318Z,22.67
2023-02-05T12:36:00.450Z,22.63
2023-02-05T12:38:44.465Z,22.61
2023-02-05T12:41:23.840Z,22.66
2023-02-05T12:43:55.680Z,22.65
2023-02-05T12:46:55.403Z,22.65
2023-02-05T12:49:45.065Z,22.66
2023-02-05T12:52:24.577Z,22.64
2023-02-05T12:55:18.213Z,22.68
2023-02-05T12:57:50.136Z,22.68
2023-02-05T13:00:23.066Z,22.67
2023-02-05T13:02:57.202Z,22.67
2023-02-05T13:05:32.232Z,22.67
2023-02-05T13:08:05.741Z,22.68
2023-02-05T13:10:43.919Z,22.68
2023-02-05T13:13:16.745Z,22.68
2023-02-05T13:15:48.332Z,22.68
2023-02-05T13:18:21.791Z,22.66
2023-02-05T13:20:55.403Z,22.68
2023-02-05T13:23:23.541Z,22.70
2023-02-05T13:25:55.464Z,22.70
2023-02-05T13:28:37.985Z,22.68
2023-02-05T13:31:19.433Z,22.66
2023-02-05T13:33:47.866Z,22.71
2023-02-05T13:36:48.115Z,22.69
2023-02-05T13:39:58.903Z,22.69
2023-02-05T13:43:11.779Z,22.69
2023-02-05T13:46:20.286Z,22.67
2023-02-05T13:49:34.137Z,22.68
2023-02-05T13:52:44.351Z,22.68
2023-02-05T13:55:42.224Z,22.66
2023-02-05T13:58:16.076Z,22.68
2023-02-05T14:00:45.812Z,22.69
2023-02-05T14:03:29.075Z,22.65
2023-02-05T14:05:57.694Z,22.70
2023-02-05T14:08:29.738Z,22.68
2023-02-05T14:11:00.687Z,22.70
2023-02-05T14:13:30.844Z,22.69
2023-02-05T14:16:18.985Z,22.71
2023-02-05T14:18:50.137Z,22.69
2023-02-05T14:21:49.444Z,22.68
2023-02-05T14:24:42.584Z,22.67
2023-02-05T14:27:43.119Z,22.69
2023-02-05T14:30:48.414Z,22.70
2023-02-05T14:33:37.192Z,22.72
2023-02-05T14:36:35.352Z,22.69
2023-02-05T14:39:07.283Z,22.68
2023-02-05T14:41:47.946Z,22.68
2023-02-05T14:44:20.228Z,22.66
2023-02-05T14:46:58.229Z,22.67
2023-02-05T14:49:28.994Z,22.64
2023-02-05T14:51:59.801Z,22.65
2023-02-05T14:54:30.730Z,22.66
2023-02-05T14:57:13.340Z,21.39
2023-02-05T14:59:49.213Z,21.93
2023-02-05T15:02:57.730Z,22.34
2023-02-05T15:05:33.762Z,22.51
2023-02-05T15:08:12.464Z,22.55
2023-02-05T15:10:48.901Z,22.52
2023-02-05T15:13:17.847Z,22.55
2023-02-05T15:16:23.691Z,22.56
2023-02-05T15:18:55.607Z,22.60
2023-02-05T15:21:26.848Z,22.59
2023-02-05T15:24:01.920Z,22.62
2023-02-05T15:26:36.708Z,22.59
2023-02-05T15:29:09.584Z,22.64
2023-02-05T15:31:41.834Z,22.58
2023-02-05T15:34:28.581Z,22.65
2023-02-05T15:37:01.842Z,22.65
2023-02-05T15:39:35.566Z,22.62
2023-02-05T15:42:06.237Z,22.63
2023-02-05T15:44:39.401Z,22.65
2023-02-05T15:47:15.401Z,22.65
2023-02-05T15:49:46.155Z,22.68
2023-02-05T15:52:20.634Z,22.65
2023-02-05T15:54:51.038Z,22.62
2023-02-05T15:57:22.588Z,22.67
2023-02-05T15:59:52.481Z,22.65
2023-02-05T16:02:22.949Z,22.66
2023-02-05T16:04:56.485Z,22.68
2023-02-05T16:07:26.572Z,22.66
2023-02-05T16:09:57.256Z,22.67
2023-02-05T16:12:25.360Z,22.70
2023-02-05T16:15:00.375Z,22.68
2023-02-05T16:17:36.200Z,22.66
2023-02-05T16:20:23.079Z,22.68
2023-02-05T16:22:54.778Z,22.65
2023-02-05T16:25:44.166Z,22.62
2023-02-05T16:28:17.346Z,22.67
2023-02-05T16:30:46.809Z,22.67
2023-02-05T16:33:23.751Z,22.67
2023-02-05T16:35:52.033Z,22.67
2023-02-05T16:38:22.075Z,22.65
2023-02-05T16:40:53.595Z,22.67
2023-02-05T16:43:30.779Z,22.66
2023-02-05T16:46:39.370Z,22.68
2023-02-05T16:49:29.302Z,22.69
2023-02-05T16:51:57.057Z,22.69
2023-02-05T16:54:35.304Z,22.66
2023-02-05T16:57:10.026Z,22.67
2023-02-05T16:59:49.585Z,22.69
2023-02-05T17:02:30.831Z,22.68
2023-02-05T17:05:00.180Z,22.66
2023-02-05T17:07:28.567Z,22.64
2023-02-05T17:10:14.986Z,22.69
2023-02-05T17:12:55.626Z,22.63
2023-02-05T17:15:36.166Z,22.66
2023-02-05T17:18:21.043Z,22.66
2023-02-05T17:20:48.663Z,22.67
2023-02-05T17:23:16.764Z,22.68
2023-02-05T17:25:51.778Z,22.68
2023-02-05T17:28:22.403Z,22.70
2023-02-05T17:30:50.115Z,22.66
2023-02-05T17:33:20.119Z,22.72
2023-02-05T17:35:47.799Z,22.70
2023-02-05T17:38:16.266Z,22.68
2023-02-05T17:40:44.531Z,22.69
2023-02-05T17:43:12.077Z,22.69
2023-02-05T17:45:42.601Z,22.72
2023-02-05T17:48:10.488Z,22.70
2023-02-05T17:50:38.225Z,22.69
2023-02-05T17:53:05.974Z,22.71
2023-02-05T17:55:33.704Z,22.72
2023-02-05T17:58:01.395Z,22.70
2023-02-05T18:00:29.875Z,22.71
2023-02-05T18:02:58.924Z,22.70
2023-02-05T18:05:26.585Z,22.71
2023-02-05T18:07:56.287Z,22.69
2023-02-05T18:10:24.991Z,22.70
2023-02-05T18:12:53.462Z,22.73
2023-02-05T18:15:21.054Z,22.71
2023-02-05T18:17:48.561Z,22.72
2023-02-05T18:20:18.373Z,22.71
2023-02-05T18:22:45.906Z,22.71
2023-02-05T18:25:13.628Z,22.70
2023-02-05T18:27:41.602Z,22.72
2023-02-05T18:30:10.606Z,22.69
2023-02-05T18:32:38.113Z,22.69
2023-02-05T18:35:06.139Z,22.69
2023-02-05T18:37:36.451Z,22.70
2023-02-05T18:40:04.766Z,22.70
2023-02-05T18:42:32.433Z,22.70
2023-02-05T18:44:59.951Z,22.70
2023-02-05T18:47:27.685Z,22.71
2023-02-05T18:49:55.259Z,22.70
2023-02-05T18:52:22.884Z,22.69
2023-02-05T18:54:53.647Z,22.68
2023-02-05T18:57:21.404Z,22.68
2023-02-05T18:59:48.939Z,22.70
2023-02-05T19:02:16.537Z,22.69
2023-02-05T19:04:44.158Z,22.71
2023-02-05T19:07:11.750Z,22.71
2023-02-05T19:09:39.424Z,22.66
2023-02-05T19:12:08.535Z,22.69
2023-02-05T19:14:36.217Z,22.68
2023-02-05T19:17:03.743Z,22.66
2023-02-05T19:19:31.659Z,22.64
2023-02-05T19:21:59.286Z,22.64
2023-02-05T19:24:26.859Z,22.67
2023-02-05T19:26:55.640Z,22.58
2023-02-05T19:29:25.403Z,22.63
2023-02-05T19:31:52.529Z,22.62
2023-02-05T19:34:20.461Z,22.66
2023-02-05T19:36:48.074Z,22.62
2023-02-05T19:39:15.802Z,22.59
2023-02-05T19:41:43.598Z,22.57
2023-02-05T19:44:11.669Z,22.59
2023-02-05T19:46:42.159Z,22.58
2023-02-05T19:49:13.397Z,22.59
2023-02-05T19:51:41.364Z,22.61
2023-02-05T19:54:08.852Z,22.53
2023-02-05T19:56:36.402Z,22.59
2023-02-05T19:59:05.424Z,22.56
2023-02-05T20:01:34.348Z,22.47
2023-02-05T20:04:08.756Z,22.53
2023-02-05T20:06:37.828Z,22.57
2023-02-05T20:09:06.650Z,22.57
2023-02-05T20:11:34.215Z,22.57
2023-02-05T20:14:01.825Z,22.55
2023-02-05T20:16:29.584Z,22.54
2023-02-05T20:18:58.919Z,22.54
2023-02-05T20:21:29.333Z,22.52
2023-02-05T20:23:57.496Z,22.50
2023-02-05T20:26:25.708Z,22.49
2023-02-05T20:28:55.832Z,22.50
2023-02-05T20:31:23.487Z,22.50
2023-02-05T20:33:50.980Z,22.49
2023-02-05T20:36:18.510Z,22.48
2023-02-05T20:38:47.481Z,22.44
2023-02-05T20:41:16.684Z,22.47
2023-02-05T20:43:44.284Z,22.47
2023-02-05T20:46:11.873Z,22.46
2023-02-05T20:48:39.494Z,22.45
2023-02-05T20:51:08.621Z,22.44
2023-02-05T20:53:36.572Z,22.42
2023-02-05T20:56:08.028Z,22.46
2023-02-05T20:58:36.026Z,22.45
2023-02-05T21:01:07.920Z,22.43
2023-02-05T21:03:36.680Z,22.41
2023-02-05T21:06:04.956Z,22.41
2023-02-05T21:08:32.465Z,22.37
2023-02-05T21:11:00.973Z,22.37
2023-02-05T21:13:30.061Z,22.39
2023-02-05T21:16:00.055Z,22.40
2023-02-05T21:18:29.261Z,22.36
2023-02-05T21:21:05.028Z,22.39
2023-02-05T21:23:32.870Z,22.41
2023-02-05T21:26:00.426Z,22.41
2023-02-05T21:28:29.749Z,22.41
2023-02-05T21:31:04.522Z,22.38
2023-02-05T21:33:32.701Z,22.37
2023-02-05T21:36:03.785Z,22.41
2023-02-05T21:38:34.044Z,22.38
2023-02-05T21:41:06.623Z,22.37
2023-02-05T21:43:35.615Z,22.35
2023-02-05T21:46:04.040Z,22.34
2023-02-05T21:48:31.659Z,22.38
2023-02-05T21:50:59.518Z,22.39
2023-02-05T21:53:28.467Z,22.42
2023-02-05T21:55:56.522Z,22.36
2023-02-05T21:58:24.103Z,22.36
2023-02-05T22:00:53.211Z,22.34
2023-02-05T22:03:20.854Z,22.36
2023-02-05T22:05:48.401Z,22.39
2023-02-05T22:08:15.918Z,22.36
2023-02-05T22:10:43.421Z,22.38
2023-02-05T22:13:11.513Z,22.38
2023-02-05T22:15:39.196Z,22.36
2023-02-05T22:18:08.161Z,22.36
2023-02-05T22:20:35.749Z,22.34
2023-02-05T22:23:03.274Z,22.35
2023-02-05T22:25:30.856Z,22.38
2023-02-05T22:27:58.973Z,22.34
2023-02-05T22:30:26.546Z,22.33
2023-02-05T22:32:54.098Z,22.31
2023-02-05T22:35:23.184Z,22.38
2023-02-05T22:37:50.642Z,22.35
2023-02-05T22:40:18.939Z,22.32
2023-02-05T22:42:46.945Z,22.36
2023-02-05T22:45:14.932Z,22.38
2023-02-05T22:47:42.477Z,22.34
2023-02-05T22:50:10.406Z,22.34
2023-02-05T22:52:39.407Z,22.38
2023-02-05T22:55:07.397Z,22.37
2023-02-05T22:57:34.958Z,22.36
2023-02-05T23:00:03.118Z,22.34
2023-02-05T23:02:30.693Z,22.30
2023-02-05T23:04:58.188Z,22.35
2023-02-05T23:07:25.696Z,22.38
2023-02-05T23:09:54.686Z,22.37
2023-02-05T23:12:22.743Z,22.35
2023-02-05T23:14:50.348Z,22.31
2023-02-05T23:17:17.962Z,22.33
2023-02-05T23:19:45.530Z,22.29
2023-02-05T23:22:13.083Z,22.34
2023-02-05T23:24:40.594Z,22.30
2023-02-05T23:27:09.711Z,22.29
2023-02-05T23:29:37.280Z,22.33
2023-02-05T23:32:05.149Z,22.34
2023-02-05T23:34:32.694Z,22.33
2023-02-05T23:37:00.244Z,22.32
2023-02-05T23:39:27.926Z,22.34
2023-02-05T23:41:55.509Z,22.26
2023-02-05T23:44:24.677Z,22.29
2023-02-05T23:46:52.512Z,22.32
2023-02-05T23:49:21.078Z,22.28
2023-02-05T23:51:49.481Z,22.33
2023-02-05T23:54:17.264Z,22.28
2023-02-05T23:56:45.130Z,22.28
2023-02-05T23:59:13.725Z,22.34
